Terminal Aerodrome Forecast
Issued by NWS Sioux Falls, SD

Home | Current Version | Previous Version | Text Only | Print | Product List | Glossary On
Versions: 1 2 3 4 5 6 7 8 9 10 11 12 13 14 15 16 17 18 19 20 21 22 23
000
FTUS43 KFSD 300400 AAB
TAFHON
TAF AMD
KHON 300400Z 3004/3024 34014KT P6SM BKN030
     FM300800 35008KT P6SM OVC020
     FM301530 VRB04KT P6SM BKN025
     FM301700 VRB04KT P6SM SCT030
     FM302000 15010KT P6SM SCT040=

USA.gov is the U.S. government's official web portal to all federal, state and local government web resources and services.